sensor_id;sensor_type;location;lat;lon;timestamp;pressure;altitude;pressure_sealevel;temperature;humidity
51083;BME280;37131;42.694;23.350;2024-02-26T00:01:24;95049.50;;;7.32;82.89
51083;BME280;37131;42.694;23.350;2024-02-26T00:03:50;95050.81;;;7.37;82.53
51083;BME280;37131;42.694;23.350;2024-02-26T00:06:15;95046.59;;;7.27;82.84
51083;BME280;37131;42.694;23.350;2024-02-26T00:08:40;95040.03;;;7.15;82.96
51083;BME280;37131;42.694;23.350;2024-02-26T00:11:06;95033.53;;;7.21;83.45
51083;BME280;37131;42.694;23.350;2024-02-26T00:13:31;95032.56;;;7.22;82.24
51083;BME280;37131;42.694;23.350;2024-02-26T00:15:57;95028.09;;;7.24;82.44
51083;BME280;37131;42.694;23.350;2024-02-26T00:18:22;95042.53;;;7.25;83.34
51083;BME280;37131;42.694;23.350;2024-02-26T00:20:47;95032.31;;;7.33;82.52
51083;BME280;37131;42.694;23.350;2024-02-26T00:23:15;95041.13;;;7.48;81.80
51083;BME280;37131;42.694;23.350;2024-02-26T00:25:40;95034.53;;;7.46;82.62
51083;BME280;37131;42.694;23.350;2024-02-26T00:28:08;95027.91;;;7.43;81.94
51083;BME280;37131;42.694;23.350;2024-02-26T00:30:33;95024.69;;;7.41;82.42
51083;BME280;37131;42.694;23.350;2024-02-26T00:32:58;95021.09;;;7.34;82.08
51083;BME280;37131;42.694;23.350;2024-02-26T00:35:24;95026.09;;;7.36;82.92
51083;BME280;37131;42.694;23.350;2024-02-26T00:37:49;95020.09;;;7.09;83.70
51083;BME280;37131;42.694;23.350;2024-02-26T00:40:15;95011.34;;;7.02;83.41
51083;BME280;37131;42.694;23.350;2024-02-26T00:42:40;95007.22;;;6.91;84.63
51083;BME280;37131;42.694;23.350;2024-02-26T00:45:14;95006.84;;;6.86;83.64
51083;BME280;37131;42.694;23.350;2024-02-26T00:47:39;95009.94;;;6.90;84.35
51083;BME280;37131;42.694;23.350;2024-02-26T00:50:07;95005.13;;;6.77;84.53
51083;BME280;37131;42.694;23.350;2024-02-26T00:52:33;94999.16;;;6.86;84.48
51083;BME280;37131;42.694;23.350;2024-02-26T00:54:58;95002.09;;;6.91;84.97
51083;BME280;37131;42.694;23.350;2024-02-26T00:57:24;94992.03;;;6.98;84.12
51083;BME280;37131;42.694;23.350;2024-02-26T00:59:49;94992.56;;;7.02;82.76
51083;BME280;37131;42.694;23.350;2024-02-26T01:02:15;94998.59;;;7.10;83.31
51083;BME280;37131;42.694;23.350;2024-02-26T01:04:41;94992.06;;;7.16;82.92
51083;BME280;37131;42.694;23.350;2024-02-26T01:07:06;94988.97;;;7.12;82.61
51083;BME280;37131;42.694;23.350;2024-02-26T01:09:31;94989.63;;;7.14;83.32
51083;BME280;37131;42.694;23.350;2024-02-26T01:11:57;94983.63;;;7.06;83.14
51083;BME280;37131;42.694;23.350;2024-02-26T01:14:22;94988.09;;;7.04;84.10
51083;BME280;37131;42.694;23.350;2024-02-26T01:16:48;94985.09;;;7.08;83.07
51083;BME280;37131;42.694;23.350;2024-02-26T01:19:14;94991.31;;;7.06;82.50
51083;BME280;37131;42.694;23.350;2024-02-26T01:21:39;94992.34;;;7.13;83.93
51083;BME280;37131;42.694;23.350;2024-02-26T01:24:04;94985.53;;;7.21;82.21
51083;BME280;37131;42.694;23.350;2024-02-26T01:26:30;94995.13;;;7.19;83.02
51083;BME280;37131;42.694;23.350;2024-02-26T01:28:56;94988.69;;;7.15;82.65
51083;BME280;37131;42.694;23.350;2024-02-26T01:31:21;94986.78;;;7.17;82.92
51083;BME280;37131;42.694;23.350;2024-02-26T01:33:46;94980.84;;;7.17;82.14
51083;BME280;37131;42.694;23.350;2024-02-26T01:36:12;94980.19;;;7.15;82.81
51083;BME280;37131;42.694;23.350;2024-02-26T01:38:37;94983.19;;;7.10;83.00
51083;BME280;37131;42.694;23.350;2024-02-26T01:41:03;94980.19;;;7.15;82.55
51083;BME280;37131;42.694;23.350;2024-02-26T01:43:28;94971.13;;;7.28;82.09
51083;BME280;37131;42.694;23.350;2024-02-26T01:45:54;94976.88;;;7.22;82.22
51083;BME280;37131;42.694;23.350;2024-02-26T01:48:20;94980.31;;;7.13;82.78
51083;BME280;37131;42.694;23.350;2024-02-26T01:50:46;94970.28;;;7.20;82.74
51083;BME280;37131;42.694;23.350;2024-02-26T01:53:12;94964.69;;;7.24;82.78
51083;BME280;37131;42.694;23.350;2024-02-26T01:55:37;94966.31;;;7.25;82.84
51083;BME280;37131;42.694;23.350;2024-02-26T01:58:03;94969.34;;;7.29;81.93
51083;BME280;37131;42.694;23.350;2024-02-26T02:00:29;94968.88;;;7.08;82.80
51083;BME280;37131;42.694;23.350;2024-02-26T02:02:54;94968.94;;;6.98;83.56
51083;BME280;37131;42.694;23.350;2024-02-26T02:05:20;94966.59;;;7.05;83.04
51083;BME280;37131;42.694;23.350;2024-02-26T02:07:46;94961.25;;;6.98;82.85
51083;BME280;37131;42.694;23.350;2024-02-26T02:10:14;94964.75;;;6.97;82.38
51083;BME280;37131;42.694;23.350;2024-02-26T02:12:40;94958.09;;;7.04;82.62
51083;BME280;37131;42.694;23.350;2024-02-26T02:15:06;94959.47;;;7.16;83.17
51083;BME280;37131;42.694;23.350;2024-02-26T02:17:32;94959.41;;;7.26;81.54
51083;BME280;37131;42.694;23.350;2024-02-26T02:19:57;94953.13;;;7.28;81.35
51083;BME280;37131;42.694;23.350;2024-02-26T02:22:22;94954.41;;;7.24;81.89
51083;BME280;37131;42.694;23.350;2024-02-26T02:24:52;94953.88;;;7.39;81.75
51083;BME280;37131;42.694;23.350;2024-02-26T02:27:18;94959.00;;;7.39;82.19
51083;BME280;37131;42.694;23.350;2024-02-26T02:29:44;94959.88;;;7.47;81.79
51083;BME280;37131;42.694;23.350;2024-02-26T02:32:10;94966.47;;;7.50;82.30
51083;BME280;37131;42.694;23.350;2024-02-26T02:34:35;94961.88;;;7.36;82.55
51083;BME280;37131;42.694;23.350;2024-02-26T02:37:01;94964.13;;;7.39;81.60
51083;BME280;37131;42.694;23.350;2024-02-26T02:39:26;94959.16;;;7.37;82.17
51083;BME280;37131;42.694;23.350;2024-02-26T02:41:51;94964.56;;;7.52;81.94
51083;BME280;37131;42.694;23.350;2024-02-26T02:44:17;94959.38;;;7.44;81.95
51083;BME280;37131;42.694;23.350;2024-02-26T02:46:43;94967.06;;;7.44;82.15
51083;BME280;37131;42.694;23.350;2024-02-26T02:49:11;94962.94;;;7.51;82.27
51083;BME280;37131;42.694;23.350;2024-02-26T02:51:37;94972.56;;;7.49;82.65
51083;BME280;37131;42.694;23.350;2024-02-26T02:54:02;94971.16;;;7.54;81.83
51083;BME280;37131;42.694;23.350;2024-02-26T02:56:28;94974.91;;;7.60;81.85
51083;BME280;37131;42.694;23.350;2024-02-26T02:58:53;94970.09;;;7.39;81.63
51083;BME280;37131;42.694;23.350;2024-02-26T03:01:19;94972.88;;;7.46;81.71
51083;BME280;37131;42.694;23.350;2024-02-26T03:03:44;94980.41;;;7.65;81.01
51083;BME280;37131;42.694;23.350;2024-02-26T03:06:09;94978.50;;;7.67;80.27
51083;BME280;37131;42.694;23.350;2024-02-26T03:08:35;94981.00;;;7.59;80.63
51083;BME280;37131;42.694;23.350;2024-02-26T03:11:03;94986.22;;;7.31;81.31
51083;BME280;37131;42.694;23.350;2024-02-26T03:13:29;94983.44;;;7.43;81.06
51083;BME280;37131;42.694;23.350;2024-02-26T03:15:54;94982.41;;;7.53;80.48
51083;BME280;37131;42.694;23.350;2024-02-26T03:18:20;94985.72;;;7.46;81.42
51083;BME280;37131;42.694;23.350;2024-02-26T03:20:45;94978.00;;;7.46;81.50
51083;BME280;37131;42.694;23.350;2024-02-26T03:23:11;94980.44;;;7.47;81.57
51083;BME280;37131;42.694;23.350;2024-02-26T03:25:41;94975.06;;;7.41;81.86
51083;BME280;37131;42.694;23.350;2024-02-26T03:28:06;94968.47;;;7.38;80.70
51083;BME280;37131;42.694;23.350;2024-02-26T03:30:31;94960.47;;;7.41;81.57
51083;BME280;37131;42.694;23.350;2024-02-26T03:32:57;94958.16;;;7.56;81.09
51083;BME280;37131;42.694;23.350;2024-02-26T03:35:22;94963.16;;;7.57;81.11
51083;BME280;37131;42.694;23.350;2024-02-26T03:37:48;94959.38;;;7.44;80.90
51083;BME280;37131;42.694;23.350;2024-02-26T03:40:15;94955.31;;;7.41;81.94
51083;BME280;37131;42.694;23.350;2024-02-26T03:42:40;94958.19;;;7.38;81.74
51083;BME280;37131;42.694;23.350;2024-02-26T03:45:06;94954.81;;;7.38;81.59
51083;BME280;37131;42.694;23.350;2024-02-26T03:47:32;94957.44;;;7.46;81.15
51083;BME280;37131;42.694;23.350;2024-02-26T03:49:57;94958.03;;;7.57;81.51
51083;BME280;37131;42.694;23.350;2024-02-26T03:52:24;94957.50;;;7.54;80.67
51083;BME280;37131;42.694;23.350;2024-02-26T03:54:49;94952.31;;;7.46;81.76
51083;BME280;37131;42.694;23.350;2024-02-26T03:57:15;94955.72;;;7.28;81.91
51083;BME280;37131;42.694;23.350;2024-02-26T03:59:40;94950.19;;;7.41;81.37
51083;BME280;37131;42.694;23.350;2024-02-26T04:02:06;94950.81;;;7.17;82.63
51083;BME280;37131;42.694;23.350;2024-02-26T04:04:34;94960.84;;;7.28;82.91
51083;BME280;37131;42.694;23.350;2024-02-26T04:07:00;94950.13;;;7.33;81.75
51083;BME280;37131;42.694;23.350;2024-02-26T04:09:25;94939.97;;;7.06;82.83
51083;BME280;37131;42.694;23.350;2024-02-26T04:11:50;94935.94;;;6.85;83.72
51083;BME280;37131;42.694;23.350;2024-02-26T04:14:16;94944.97;;;6.89;83.95
51083;BME280;37131;42.694;23.350;2024-02-26T04:16:41;94951.69;;;6.90;84.13
51083;BME280;37131;42.694;23.350;2024-02-26T04:19:07;94937.69;;;7.03;83.30
51083;BME280;37131;42.694;23.350;2024-02-26T04:21:33;94934.53;;;7.09;83.16
51083;BME280;37131;42.694;23.350;2024-02-26T04:23:58;94936.22;;;7.00;83.76
51083;BME280;37131;42.694;23.350;2024-02-26T04:26:27;94938.72;;;6.92;82.72
51083;BME280;37131;42.694;23.350;2024-02-26T04:28:52;94937.69;;;6.85;83.42
51083;BME280;37131;42.694;23.350;2024-02-26T04:31:18;94931.19;;;6.73;83.96
51083;BME280;37131;42.694;23.350;2024-02-26T04:33:43;94931.63;;;6.68;84.18
51083;BME280;37131;42.694;23.350;2024-02-26T04:36:13;94932.69;;;6.48;84.75
51083;BME280;37131;42.694;23.350;2024-02-26T04:38:40;94942.66;;;6.51;84.15
51083;BME280;37131;42.694;23.350;2024-02-26T04:41:06;94938.94;;;6.63;85.13
51083;BME280;37131;42.694;23.350;2024-02-26T04:43:31;94942.16;;;6.65;83.58
51083;BME280;37131;42.694;23.350;2024-02-26T04:45:56;94947.66;;;6.52;85.11
51083;BME280;37131;42.694;23.350;2024-02-26T04:48:22;94942.09;;;6.57;85.52
51083;BME280;37131;42.694;23.350;2024-02-26T04:50:48;94947.97;;;6.67;83.94
51083;BME280;37131;42.694;23.350;2024-02-26T04:53:13;94944.75;;;6.65;84.71
51083;BME280;37131;42.694;23.350;2024-02-26T04:55:39;94952.53;;;6.73;84.15
51083;BME280;37131;42.694;23.350;2024-02-26T04:58:04;94950.53;;;6.40;84.45
51083;BME280;37131;42.694;23.350;2024-02-26T05:00:29;94948.03;;;6.30;85.49
51083;BME280;37131;42.694;23.350;2024-02-26T05:02:55;94956.25;;;6.06;86.20
51083;BME280;37131;42.694;23.350;2024-02-26T05:05:20;94951.47;;;6.21;85.93
51083;BME280;37131;42.694;23.350;2024-02-26T05:07:46;94962.31;;;6.32;84.21
51083;BME280;37131;42.694;23.350;2024-02-26T05:10:11;94968.34;;;6.23;84.04
51083;BME280;37131;42.694;23.350;2024-02-26T05:12:36;94963.38;;;6.12;85.89
51083;BME280;37131;42.694;23.350;2024-02-26T05:15:02;94973.47;;;6.23;85.19
51083;BME280;37131;42.694;23.350;2024-02-26T05:17:28;94976.09;;;6.04;84.47
51083;BME280;37131;42.694;23.350;2024-02-26T05:19:53;94979.31;;;6.06;84.47
51083;BME280;37131;42.694;23.350;2024-02-26T05:22:19;94979.00;;;6.19;84.06
51083;BME280;37131;42.694;23.350;2024-02-26T05:24:45;94991.63;;;6.30;84.14
51083;BME280;37131;42.694;23.350;2024-02-26T05:27:10;94991.22;;;6.25;84.60
51083;BME280;37131;42.694;23.350;2024-02-26T05:29:37;94999.25;;;6.22;83.79
51083;BME280;37131;42.694;23.350;2024-02-26T05:32:03;94994.84;;;6.32;84.76
51083;BME280;37131;42.694;23.350;2024-02-26T05:34:28;94984.59;;;6.32;84.07
51083;BME280;37131;42.694;23.350;2024-02-26T05:36:55;95001.28;;;6.46;83.53
51083;BME280;37131;42.694;23.350;2024-02-26T05:39:20;95004.09;;;6.52;83.37
51083;BME280;37131;42.694;23.350;2024-02-26T05:41:46;95007.31;;;6.54;84.63
51083;BME280;37131;42.694;23.350;2024-02-26T05:44:11;95003.75;;;6.65;83.30
51083;BME280;37131;42.694;23.350;2024-02-26T05:46:36;95008.47;;;6.70;84.06
51083;BME280;37131;42.694;23.350;2024-02-26T05:49:02;95005.22;;;6.68;83.60
51083;BME280;37131;42.694;23.350;2024-02-26T05:51:28;95005.31;;;6.76;82.47
51083;BME280;37131;42.694;23.350;2024-02-26T05:53:53;95009.13;;;6.89;83.61
51083;BME280;37131;42.694;23.350;2024-02-26T05:56:23;95010.00;;;6.98;82.64
51083;BME280;37131;42.694;23.350;2024-02-26T05:58:49;95000.50;;;7.08;82.42
51083;BME280;37131;42.694;23.350;2024-02-26T06:01:16;95004.38;;;7.12;82.52
51083;BME280;37131;42.694;23.350;2024-02-26T06:03:42;95019.44;;;7.25;82.48
51083;BME280;37131;42.694;23.350;2024-02-26T06:06:07;95020.72;;;7.29;81.32
51083;BME280;37131;42.694;23.350;2024-02-26T06:08:33;95016.06;;;7.24;81.63
51083;BME280;37131;42.694;23.350;2024-02-26T06:10:58;95021.06;;;7.26;81.31
51083;BME280;37131;42.694;23.350;2024-02-26T06:13:24;95022.19;;;7.31;81.86
51083;BME280;37131;42.694;23.350;2024-02-26T06:15:49;95020.38;;;7.24;81.53
51083;BME280;37131;42.694;23.350;2024-02-26T06:18:14;95026.88;;;7.36;82.07
51083;BME280;37131;42.694;23.350;2024-02-26T06:20:41;95036.94;;;7.47;81.45
51083;BME280;37131;42.694;23.350;2024-02-26T06:23:06;95027.63;;;7.28;81.93
51083;BME280;37131;42.694;23.350;2024-02-26T06:25:32;95022.56;;;7.37;81.69
51083;BME280;37131;42.694;23.350;2024-02-26T06:27:57;95028.34;;;7.39;81.68
51083;BME280;37131;42.694;23.350;2024-02-26T06:30:23;95031.06;;;7.37;80.80
51083;BME280;37131;42.694;23.350;2024-02-26T06:32:48;95033.72;;;7.45;81.51
51083;BME280;37131;42.694;23.350;2024-02-26T06:35:13;95024.75;;;7.31;81.56
51083;BME280;37131;42.694;23.350;2024-02-26T06:37:39;95030.19;;;7.28;81.85
51083;BME280;37131;42.694;23.350;2024-02-26T06:40:05;95024.84;;;7.22;82.78
51083;BME280;37131;42.694;23.350;2024-02-26T06:42:32;95028.53;;;7.19;82.50
51083;BME280;37131;42.694;23.350;2024-02-26T06:44:57;95030.50;;;7.25;81.36
51083;BME280;37131;42.694;23.350;2024-02-26T06:47:23;95031.94;;;7.28;81.98
51083;BME280;37131;42.694;23.350;2024-02-26T06:49:48;95029.31;;;7.38;82.17
51083;BME280;37131;42.694;23.350;2024-02-26T06:52:14;95027.63;;;7.46;81.59
51083;BME280;37131;42.694;23.350;2024-02-26T06:54:39;95019.63;;;7.31;81.62
51083;BME280;37131;42.694;23.350;2024-02-26T06:57:05;95024.91;;;7.30;81.80
51083;BME280;37131;42.694;23.350;2024-02-26T06:59:30;95026.66;;;7.29;81.78
51083;BME280;37131;42.694;23.350;2024-02-26T07:01:55;95025.44;;;7.34;81.56
51083;BME280;37131;42.694;23.350;2024-02-26T07:04:21;95030.13;;;7.38;81.16
51083;BME280;37131;42.694;23.350;2024-02-26T07:06:47;95031.28;;;7.44;81.59
51083;BME280;37131;42.694;23.350;2024-02-26T07:09:12;95034.97;;;7.41;82.03
51083;BME280;37131;42.694;23.350;2024-02-26T07:11:38;95028.59;;;7.45;81.59
51083;BME280;37131;42.694;23.350;2024-02-26T07:14:07;95038.84;;;7.45;80.88
51083;BME280;37131;42.694;23.350;2024-02-26T07:16:32;95041.00;;;7.50;81.57
51083;BME280;37131;42.694;23.350;2024-02-26T07:18:58;95038.56;;;7.66;80.56
51083;BME280;37131;42.694;23.350;2024-02-26T07:21:23;95051.19;;;7.59;81.60
51083;BME280;37131;42.694;23.350;2024-02-26T07:23:49;95047.81;;;7.59;81.59
51083;BME280;37131;42.694;23.350;2024-02-26T07:26:14;95044.50;;;7.67;80.60
51083;BME280;37131;42.694;23.350;2024-02-26T07:28:40;95044.72;;;7.73;79.94
51083;BME280;37131;42.694;23.350;2024-02-26T07:31:05;95045.53;;;7.74;80.01
51083;BME280;37131;42.694;23.350;2024-02-26T07:33:30;95042.16;;;7.73;79.76
51083;BME280;37131;42.694;23.350;2024-02-26T07:35:56;95040.25;;;7.75;79.97
51083;BME280;37131;42.694;23.350;2024-02-26T07:38:21;95041.13;;;7.66;79.93
51083;BME280;37131;42.694;23.350;2024-02-26T07:40:48;95051.97;;;7.78;80.79
51083;BME280;37131;42.694;23.350;2024-02-26T07:43:14;95051.78;;;7.97;79.67
51083;BME280;37131;42.694;23.350;2024-02-26T07:45:39;95045.50;;;8.17;79.70
51083;BME280;37131;42.694;23.350;2024-02-26T07:48:04;95045.13;;;7.86;79.70
51083;BME280;37131;42.694;23.350;2024-02-26T07:50:30;95045.69;;;7.98;79.67
51083;BME280;37131;42.694;23.350;2024-02-26T07:52:56;95046.19;;;8.02;79.67
51083;BME280;37131;42.694;23.350;2024-02-26T07:55:21;95055.31;;;7.96;80.22
51083;BME280;37131;42.694;23.350;2024-02-26T07:57:48;95043.00;;;8.08;79.81
51083;BME280;37131;42.694;23.350;2024-02-26T08:00:13;95039.25;;;8.20;80.11
51083;BME280;37131;42.694;23.350;2024-02-26T08:02:42;95034.59;;;8.23;80.00
51083;BME280;37131;42.694;23.350;2024-02-26T08:05:08;95026.28;;;8.29;79.64
51083;BME280;37131;42.694;23.350;2024-02-26T08:07:34;95030.81;;;8.36;78.71
51083;BME280;37131;42.694;23.350;2024-02-26T08:09:59;95031.47;;;8.38;79.24
51083;BME280;37131;42.694;23.350;2024-02-26T08:12:24;95035.50;;;8.40;79.04
51083;BME280;37131;42.694;23.350;2024-02-26T08:14:50;95033.44;;;8.44;78.65
51083;BME280;37131;42.694;23.350;2024-02-26T08:17:16;95032.31;;;8.46;78.06
51083;BME280;37131;42.694;23.350;2024-02-26T08:19:42;95034.66;;;8.66;78.09
51083;BME280;37131;42.694;23.350;2024-02-26T08:22:07;95031.28;;;8.65;77.91
51083;BME280;37131;42.694;23.350;2024-02-26T08:24:32;95032.47;;;8.87;76.92
51083;BME280;37131;42.694;23.350;2024-02-26T08:26:58;95036.38;;;9.07;76.38
51083;BME280;37131;42.694;23.350;2024-02-26T08:29:23;95036.28;;;9.33;75.23
51083;BME280;37131;42.694;23.350;2024-02-26T08:31:48;95040.78;;;9.47;74.19
51083;BME280;37131;42.694;23.350;2024-02-26T08:34:14;95037.88;;;9.42;74.81
51083;BME280;37131;42.694;23.350;2024-02-26T08:36:39;95026.63;;;9.59;74.33
51083;BME280;37131;42.694;23.350;2024-02-26T08:39:05;95034.19;;;9.53;74.95
51083;BME280;37131;42.694;23.350;2024-02-26T08:41:30;95037.91;;;9.75;74.59
51083;BME280;37131;42.694;23.350;2024-02-26T08:43:56;95030.81;;;9.77;74.24
51083;BME280;37131;42.694;23.350;2024-02-26T08:46:23;95027.44;;;9.84;75.16
51083;BME280;37131;42.694;23.350;2024-02-26T08:48:48;95036.63;;;9.87;74.42
51083;BME280;37131;42.694;23.350;2024-02-26T08:51:14;95024.00;;;10.00;74.56
51083;BME280;37131;42.694;23.350;2024-02-26T08:53:40;95027.06;;;10.12;73.40
51083;BME280;37131;42.694;23.350;2024-02-26T08:56:05;95023.84;;;10.26;72.75
51083;BME280;37131;42.694;23.350;2024-02-26T08:58:31;95025.94;;;10.31;72.31
51083;BME280;37131;42.694;23.350;2024-02-26T09:00:56;95031.81;;;10.55;72.40
51083;BME280;37131;42.694;23.350;2024-02-26T09:03:22;95019.50;;;10.74;71.52
51083;BME280;37131;42.694;23.350;2024-02-26T09:05:48;95026.38;;;11.12;69.15
51083;BME280;37131;42.694;23.350;2024-02-26T09:08:14;95021.63;;;11.47;69.02
51083;BME280;37131;42.694;23.350;2024-02-26T09:10:39;95014.56;;;11.18;67.15
51083;BME280;37131;42.694;23.350;2024-02-26T09:13:05;95019.66;;;11.03;68.78
51083;BME280;37131;42.694;23.350;2024-02-26T09:15:30;95017.81;;;11.43;69.51
51083;BME280;37131;42.694;23.350;2024-02-26T09:17:56;95017.72;;;11.51;68.54
51083;BME280;37131;42.694;23.350;2024-02-26T09:20:21;95014.50;;;11.72;67.49
51083;BME280;37131;42.694;23.350;2024-02-26T09:22:48;95013.75;;;11.63;66.88
51083;BME280;37131;42.694;23.350;2024-02-26T09:25:14;95015.13;;;11.97;66.87
51083;BME280;37131;42.694;23.350;2024-02-26T09:27:43;95004.97;;;11.72;66.23
51083;BME280;37131;42.694;23.350;2024-02-26T09:30:12;95007.44;;;11.66;67.05
51083;BME280;37131;42.694;23.350;2024-02-26T09:32:38;95004.22;;;11.86;65.82
51083;BME280;37131;42.694;23.350;2024-02-26T09:35:07;94999.06;;;11.86;65.34
51083;BME280;37131;42.694;23.350;2024-02-26T09:37:33;94994.00;;;12.22;64.47
51083;BME280;37131;42.694;23.350;2024-02-26T09:39:59;94999.66;;;12.41;63.14
51083;BME280;37131;42.694;23.350;2024-02-26T09:42:26;94997.91;;;12.48;62.07
51083;BME280;37131;42.694;23.350;2024-02-26T09:44:54;95000.50;;;12.63;63.43
51083;BME280;37131;42.694;23.350;2024-02-26T09:47:26;94997.47;;;12.74;62.08
51083;BME280;37131;42.694;23.350;2024-02-26T09:49:55;94997.56;;;12.80;60.52
51083;BME280;37131;42.694;23.350;2024-02-26T09:52:21;94990.84;;;12.86;60.05
51083;BME280;37131;42.694;23.350;2024-02-26T09:54:48;94992.44;;;12.87;59.54
51083;BME280;37131;42.694;23.350;2024-02-26T09:57:15;94995.78;;;13.02;60.29
51083;BME280;37131;42.694;23.350;2024-02-26T09:59:43;94991.84;;;12.70;58.68
51083;BME280;37131;42.694;23.350;2024-02-26T10:02:13;94986.13;;;12.60;60.97
51083;BME280;37131;42.694;23.350;2024-02-26T10:04:42;94993.34;;;12.79;60.20
51083;BME280;37131;42.694;23.350;2024-02-26T10:07:12;94988.19;;;13.01;59.53
51083;BME280;37131;42.694;23.350;2024-02-26T10:09:38;94990.78;;;13.01;58.72
51083;BME280;37131;42.694;23.350;2024-02-26T10:12:04;94990.25;;;13.05;58.07
51083;BME280;37131;42.694;23.350;2024-02-26T10:14:31;94981.38;;;13.14;56.48
51083;BME280;37131;42.694;23.350;2024-02-26T10:16:56;94977.63;;;13.17;57.77
51083;BME280;37131;42.694;23.350;2024-02-26T10:19:26;94974.75;;;13.27;56.10
51083;BME280;37131;42.694;23.350;2024-02-26T10:21:58;94974.00;;;13.33;55.07
51083;BME280;37131;42.694;23.350;2024-02-26T10:24:25;94968.34;;;13.44;56.29
51083;BME280;37131;42.694;23.350;2024-02-26T10:26:51;94968.59;;;13.49;56.14
51083;BME280;37131;42.694;23.350;2024-02-26T10:29:18;94967.81;;;13.55;56.01
51083;BME280;37131;42.694;23.350;2024-02-26T10:31:43;94964.97;;;13.71;54.57
51083;BME280;37131;42.694;23.350;2024-02-26T10:34:09;94963.22;;;13.50;55.92
51083;BME280;37131;42.694;23.350;2024-02-26T10:36:35;94952.13;;;13.63;54.58
51083;BME280;37131;42.694;23.350;2024-02-26T10:39:04;94958.16;;;13.70;54.52
51083;BME280;37131;42.694;23.350;2024-02-26T10:41:30;94958.78;;;13.72;54.98
51083;BME280;37131;42.694;23.350;2024-02-26T10:43:56;94939.63;;;14.01;53.48
51083;BME280;37131;42.694;23.350;2024-02-26T10:46:22;94936.78;;;13.96;54.44
51083;BME280;37131;42.694;23.350;2024-02-26T10:48:51;94940.88;;;14.12;53.61
51083;BME280;37131;42.694;23.350;2024-02-26T10:51:25;94945.63;;;14.02;54.57
51083;BME280;37131;42.694;23.350;2024-02-26T10:53:57;94940.91;;;13.84;54.08
51083;BME280;37131;42.694;23.350;2024-02-26T10:56:30;94933.97;;;13.91;52.80
51083;BME280;37131;42.694;23.350;2024-02-26T10:58:58;94933.81;;;13.71;54.74
51083;BME280;37131;42.694;23.350;2024-02-26T11:01:27;94939.84;;;13.78;53.55
51083;BME280;37131;42.694;23.350;2024-02-26T11:03:55;94936.94;;;13.88;54.17
51083;BME280;37131;42.694;23.350;2024-02-26T11:06:21;94933.50;;;13.81;54.76
51083;BME280;37131;42.694;23.350;2024-02-26T11:08:50;94926.97;;;13.91;54.02
51083;BME280;37131;42.694;23.350;2024-02-26T11:11:17;94925.25;;;14.05;53.19
51083;BME280;37131;42.694;23.350;2024-02-26T11:13:46;94922.28;;;14.08;52.25
51083;BME280;37131;42.694;23.350;2024-02-26T11:16:18;94918.50;;;14.11;52.33
51083;BME280;37131;42.694;23.350;2024-02-26T11:18:46;94923.91;;;14.16;52.68
51083;BME280;37131;42.694;23.350;2024-02-26T11:21:15;94917.75;;;14.23;51.43
51083;BME280;37131;42.694;23.350;2024-02-26T11:23:40;94922.00;;;14.31;51.63
51083;BME280;37131;42.694;23.350;2024-02-26T11:26:07;94919.50;;;14.44;51.25
51083;BME280;37131;42.694;23.350;2024-02-26T11:28:34;94923.53;;;14.53;51.69
51083;BME280;37131;42.694;23.350;2024-02-26T11:31:00;94922.13;;;14.16;51.22
51083;BME280;37131;42.694;23.350;2024-02-26T11:33:27;94912.38;;;14.25;50.92
51083;BME280;37131;42.694;23.350;2024-02-26T11:35:54;94916.97;;;14.23;50.54
51083;BME280;37131;42.694;23.350;2024-02-26T11:38:21;94914.16;;;14.24;50.52
51083;BME280;37131;42.694;23.350;2024-02-26T11:40:47;94913.94;;;14.19;51.28
51083;BME280;37131;42.694;23.350;2024-02-26T11:43:13;94915.72;;;14.47;50.93
51083;BME280;37131;42.694;23.350;2024-02-26T11:48:04;94907.22;;;14.32;51.84
51083;BME280;37131;42.694;23.350;2024-02-26T11:50:38;94907.50;;;14.43;51.77
51083;BME280;37131;42.694;23.350;2024-02-26T11:53:23;94907.97;;;14.67;49.80
51083;BME280;37131;42.694;23.350;2024-02-26T11:56:24;94905.84;;;14.36;50.62
51083;BME280;37131;42.694;23.350;2024-02-26T12:01:49;94904.25;;;14.35;51.44
51083;BME280;37131;42.694;23.350;2024-02-26T12:04:17;94904.66;;;14.38;52.85
51083;BME280;37131;42.694;23.350;2024-02-26T12:06:48;94901.34;;;14.57;50.16
51083;BME280;37131;42.694;23.350;2024-02-26T12:12:00;94902.13;;;14.45;51.09
51083;BME280;37131;42.694;23.350;2024-02-26T12:14:26;94911.75;;;14.51;50.68
51083;BME280;37131;42.694;23.350;2024-02-26T12:16:52;94901.31;;;14.10;50.63
51083;BME280;37131;42.694;23.350;2024-02-26T12:19:18;94900.53;;;14.16;50.55
51083;BME280;37131;42.694;23.350;2024-02-26T12:21:44;94903.31;;;14.42;50.48
51083;BME280;37131;42.694;23.350;2024-02-26T12:24:14;94902.41;;;14.70;48.92
51083;BME280;37131;42.694;23.350;2024-02-26T12:26:41;94906.00;;;14.69;49.46
51083;BME280;37131;42.694;23.350;2024-02-26T12:29:07;94903.25;;;14.90;49.13
51083;BME280;37131;42.694;23.350;2024-02-26T12:31:33;94905.09;;;15.03;47.33
51083;BME280;37131;42.694;23.350;2024-02-26T12:34:00;94908.47;;;15.10;47.65
51083;BME280;37131;42.694;23.350;2024-02-26T12:36:26;94898.53;;;15.46;45.58
51083;BME280;37131;42.694;23.350;2024-02-26T12:38:52;94905.31;;;15.34;45.16
51083;BME280;37131;42.694;23.350;2024-02-26T12:41:17;94908.91;;;15.33;43.96
51083;BME280;37131;42.694;23.350;2024-02-26T12:43:43;94899.69;;;15.24;45.72
51083;BME280;37131;42.694;23.350;2024-02-26T12:46:08;94904.91;;;15.31;45.50
51083;BME280;37131;42.694;23.350;2024-02-26T12:48:34;94910.03;;;14.84;45.40
51083;BME280;37131;42.694;23.350;2024-02-26T12:50:59;94901.72;;;15.68;44.25
51083;BME280;37131;42.694;23.350;2024-02-26T12:53:26;94893.50;;;15.38;44.22
51083;BME280;37131;42.694;23.350;2024-02-26T12:55:53;94899.53;;;15.85;44.05
51083;BME280;37131;42.694;23.350;2024-02-26T12:58:19;94900.38;;;16.43;41.85
51083;BME280;37131;42.694;23.350;2024-02-26T13:00:51;94895.47;;;16.73;41.03